Time;durP1;ratioP1;P1;durP2;ratioP2;P2;SDS_P1;SDS_P2;PMS_P1;PMS_P2;Temp;Humidity;BMP_temperature;BMP_pressure;BME280_temperature;BME280_humidity;BME280_pressure;Samples;Min_cycle;Max_cycle;Signal;HPM_P1;HPM_P2
2024/02/16 00:03:00;;;;;;;31.97;10.87;;;;;;;;;;6358516;28;20391;-54
2024/02/16 00:06:04;;;;;;;34.00;11.13;;;;;;;;;;6358968;28;20287;-54
2024/02/16 00:09:10;;;;;;;28.57;10.20;;;;;;;;;;6351984;28;20308;-54
2024/02/16 00:12:14;;;;;;;31.77;11.20;;;;;;;;;;6357028;28;20298;-56
2024/02/16 00:15:18;;;;;;;31.80;11.00;;;;;;;;;;6357866;28;20298;-54
2024/02/16 00:18:22;;;;;;;25.77;10.40;;;;;;;;;;6356989;28;20460;-56
2024/02/16 00:21:26;;;;;;;25.90;10.93;;;;;;;;;;6356971;28;20587;-56
2024/02/16 00:24:33;;;;;;;25.67;10.17;;;;;;;;;;6357752;28;20345;-56
2024/02/16 00:27:38;;;;;;;30.43;10.50;;;;;;;;;;6358233;28;20290;-56
2024/02/16 00:30:42;;;;;;;25.57;10.07;;;;;;;;;;6357476;28;20579;-56
2024/02/16 00:33:46;;;;;;;27.87;10.37;;;;;;;;;;6357476;28;20290;-55
2024/02/16 00:36:50;;;;;;;23.93;10.10;;;;;;;;;;6357023;28;20334;-54
2024/02/16 00:39:55;;;;;;;23.57;10.03;;;;;;;;;;6311532;28;20589;-54
2024/02/16 00:42:59;;;;;;;26.33;9.97;;;;;;;;;;6306851;28;20299;-56
2024/02/16 00:46:03;;;;;;;21.90;9.90;;;;;;;;;;6307483;28;20499;-56
2024/02/16 00:49:07;;;;;;;20.87;9.33;;;;;;;;;;6306812;28;20289;-56
2024/02/16 00:52:14;;;;;;;22.57;10.07;;;;;;;;;;6306970;28;20300;-56
2024/02/16 00:55:19;;;;;;;20.37;9.30;;;;;;;;;;6311411;28;20303;-56
2024/02/16 00:58:23;;;;;;;24.90;9.63;;;;;;;;;;6332032;28;20296;-55
2024/02/16 01:01:27;;;;;;;22.53;9.40;;;;;;;;;;6331667;28;20296;-55
2024/02/16 01:04:31;;;;;;;22.03;9.27;;;;;;;;;;6331434;28;20355;-57
2024/02/16 01:07:35;;;;;;;23.03;9.63;;;;;;;;;;6332341;28;20584;-54
2024/02/16 01:10:40;;;;;;;22.57;9.20;;;;;;;;;;6348405;28;20318;-57
2024/02/16 01:13:44;;;;;;;21.33;9.50;;;;;;;;;;6365859;27;20479;-57
2024/02/16 01:16:48;;;;;;;24.70;9.00;;;;;;;;;;6366318;28;20550;-57
2024/02/16 01:19:52;;;;;;;23.37;8.87;;;;;;;;;;6365367;28;20282;-55
2024/02/16 01:22:56;;;;;;;23.47;9.43;;;;;;;;;;6364836;28;20291;-57
2024/02/16 01:26:01;;;;;;;23.90;8.87;;;;;;;;;;6366046;28;20294;-56
2024/02/16 01:29:05;;;;;;;19.27;8.37;;;;;;;;;;6365415;28;20444;-56
2024/02/16 01:32:09;;;;;;;22.17;9.00;;;;;;;;;;6365937;28;20301;-57
2024/02/16 01:35:14;;;;;;;19.50;8.00;;;;;;;;;;6365268;28;20314;-55
2024/02/16 01:38:18;;;;;;;24.23;8.73;;;;;;;;;;6365113;28;20288;-57
2024/02/16 01:41:23;;;;;;;19.00;8.43;;;;;;;;;;6365329;27;20307;-56
2024/02/16 01:44:27;;;;;;;22.43;9.63;;;;;;;;;;6365194;28;20346;-56
2024/02/16 01:47:31;;;;;;;23.10;8.27;;;;;;;;;;6365358;28;20287;-57
2024/02/16 01:50:35;;;;;;;23.07;8.90;;;;;;;;;;6364824;27;20300;-57
2024/02/16 01:53:41;;;;;;;18.73;7.87;;;;;;;;;;6364950;28;20295;-58
2024/02/16 01:56:46;;;;;;;17.10;8.10;;;;;;;;;;6363852;28;20607;-57
2024/02/16 01:59:51;;;;;;;18.80;8.17;;;;;;;;;;6364342;28;20470;-57
2024/02/16 02:02:57;;;;;;;18.17;8.83;;;;;;;;;;6362717;28;20291;-56
2024/02/16 02:06:01;;;;;;;16.00;8.17;;;;;;;;;;6365127;28;20303;-56
2024/02/16 02:09:05;;;;;;;19.40;8.60;;;;;;;;;;6364640;28;20291;-54
2024/02/16 02:12:10;;;;;;;18.90;8.10;;;;;;;;;;6365022;28;20292;-56
2024/02/16 02:15:15;;;;;;;18.57;8.03;;;;;;;;;;6365038;28;20588;-54
2024/02/16 02:18:19;;;;;;;17.77;7.83;;;;;;;;;;6364409;28;20290;-56
2024/02/16 02:21:23;;;;;;;25.03;8.77;;;;;;;;;;6362612;28;20579;-56
2024/02/16 02:24:28;;;;;;;19.40;8.50;;;;;;;;;;6360414;28;20303;-56
2024/02/16 02:27:33;;;;;;;12.87;8.10;;;;;;;;;;6360660;28;20292;-53
2024/02/16 02:30:37;;;;;;;14.77;8.13;;;;;;;;;;6360728;28;20564;-56
2024/02/16 02:33:42;;;;;;;13.43;7.50;;;;;;;;;;6360516;28;20294;-56
2024/02/16 02:36:46;;;;;;;13.97;7.80;;;;;;;;;;6360951;28;20475;-56
2024/02/16 02:39:51;;;;;;;9.00;6.90;;;;;;;;;;6360423;28;20286;-55
2024/02/16 02:42:55;;;;;;;15.20;7.70;;;;;;;;;;6359914;28;20297;-54
2024/02/16 02:45:59;;;;;;;11.60;7.13;;;;;;;;;;6360762;28;20302;-54
2024/02/16 02:49:03;;;;;;;10.13;7.13;;;;;;;;;;6360179;28;20296;-56
2024/02/16 02:52:07;;;;;;;7.30;6.47;;;;;;;;;;6360329;28;20287;-55
2024/02/16 02:55:13;;;;;;;9.73;7.10;;;;;;;;;;6359819;28;20612;-55
2024/02/16 02:58:17;;;;;;;9.50;6.80;;;;;;;;;;6359550;28;20295;-56
2024/02/16 03:01:22;;;;;;;9.00;7.20;;;;;;;;;;6360167;28;20475;-56
2024/02/16 03:04:26;;;;;;;8.73;6.90;;;;;;;;;;6359318;28;20292;-55
2024/02/16 03:07:30;;;;;;;7.03;6.30;;;;;;;;;;6359758;28;20296;-55
2024/02/16 03:10:36;;;;;;;6.30;5.77;;;;;;;;;;6359175;28;20291;-53
2024/02/16 03:13:40;;;;;;;9.03;7.33;;;;;;;;;;6359296;28;20488;-53
2024/02/16 03:16:45;;;;;;;6.33;5.83;;;;;;;;;;6359512;28;20297;-56
2024/02/16 03:19:48;;;;;;;8.77;6.77;;;;;;;;;;6359160;28;20313;-55
2024/02/16 03:22:52;;;;;;;6.17;5.63;;;;;;;;;;6359293;28;20287;-54
2024/02/16 03:25:58;;;;;;;6.37;5.60;;;;;;;;;;6358308;28;20288;-55
2024/02/16 03:29:01;;;;;;;6.50;5.90;;;;;;;;;;6358992;28;20299;-54
2024/02/16 03:32:05;;;;;;;7.10;6.40;;;;;;;;;;6359392;28;20411;-54
2024/02/16 03:35:09;;;;;;;6.60;5.67;;;;;;;;;;6357753;28;20292;-53
2024/02/16 03:38:13;;;;;;;6.93;6.03;;;;;;;;;;6358930;28;20599;-56
2024/02/16 03:41:21;;;;;;;6.80;6.20;;;;;;;;;;6359072;28;20293;-56
2024/02/16 03:44:26;;;;;;;7.00;6.30;;;;;;;;;;6358379;28;20625;-55
2024/02/16 03:47:30;;;;;;;7.30;6.60;;;;;;;;;;6359352;28;20296;-53
2024/02/16 03:50:35;;;;;;;6.03;5.53;;;;;;;;;;6358343;28;20296;-56
2024/02/16 03:53:39;;;;;;;6.50;5.97;;;;;;;;;;6357754;28;20298;-55
2024/02/16 03:56:45;;;;;;;6.63;6.07;;;;;;;;;;6358765;28;20467;-53
2024/02/16 03:59:49;;;;;;;6.33;5.83;;;;;;;;;;6357972;28;20315;-54
2024/02/16 04:02:53;;;;;;;6.13;5.60;;;;;;;;;;6329220;28;20299;-56
2024/02/16 04:05:59;;;;;;;6.17;5.57;;;;;;;;;;6358535;28;20287;-55
2024/02/16 04:09:05;;;;;;;5.83;5.23;;;;;;;;;;6357585;28;20291;-54
2024/02/16 04:12:11;;;;;;;6.27;5.77;;;;;;;;;;6358406;28;20533;-56
2024/02/16 04:15:15;;;;;;;4.90;4.60;;;;;;;;;;6357364;28;20545;-55
2024/02/16 04:18:19;;;;;;;5.10;4.70;;;;;;;;;;6357635;28;20299;-57
2024/02/16 04:21:23;;;;;;;4.93;4.43;;;;;;;;;;6358525;28;20291;-55
2024/02/16 04:24:27;;;;;;;4.17;3.97;;;;;;;;;;6358142;28;20295;-54
2024/02/16 04:27:33;;;;;;;4.83;4.53;;;;;;;;;;6357427;28;20290;-55
2024/02/16 04:30:36;;;;;;;5.00;4.70;;;;;;;;;;6358186;28;20296;-54
2024/02/16 04:33:40;;;;;;;4.43;4.13;;;;;;;;;;6356921;28;20303;-56
2024/02/16 04:36:45;;;;;;;4.73;4.50;;;;;;;;;;6358523;28;20294;-56
2024/02/16 04:39:49;;;;;;;4.93;4.50;;;;;;;;;;6357915;28;20290;-55
2024/02/16 04:42:54;;;;;;;4.17;3.93;;;;;;;;;;6358133;28;20290;-57
2024/02/16 04:45:59;;;;;;;3.60;3.50;;;;;;;;;;6357226;28;20287;-55
2024/02/16 04:49:03;;;;;;;3.70;3.60;;;;;;;;;;6357560;28;20287;-57
2024/02/16 04:52:08;;;;;;;3.70;3.50;;;;;;;;;;6357921;28;20332;-57
2024/02/16 04:55:13;;;;;;;3.43;3.33;;;;;;;;;;6357317;28;20311;-56
2024/02/16 04:58:18;;;;;;;3.10;3.00;;;;;;;;;;6356863;28;20295;-57
2024/02/16 05:01:22;;;;;;;3.20;3.10;;;;;;;;;;6357789;28;20470;-57
2024/02/16 05:04:26;;;;;;;3.47;3.37;;;;;;;;;;6357093;28;20295;-55
2024/02/16 05:07:31;;;;;;;3.30;3.20;;;;;;;;;;6357113;28;20292;-55
2024/02/16 05:10:35;;;;;;;3.27;3.17;;;;;;;;;;6357176;28;20292;-56
2024/02/16 05:13:42;;;;;;;3.00;3.00;;;;;;;;;;6356846;28;20294;-56
2024/02/16 05:16:46;;;;;;;2.77;2.77;;;;;;;;;;6357786;28;20295;-58
2024/02/16 05:19:50;;;;;;;2.83;2.73;;;;;;;;;;6356979;28;20383;-55
2024/02/16 05:22:54;;;;;;;2.90;2.80;;;;;;;;;;6355875;28;20467;-58
2024/02/16 05:25:58;;;;;;;2.77;2.77;;;;;;;;;;6357656;28;20288;-54
2024/02/16 05:29:03;;;;;;;2.83;2.73;;;;;;;;;;6356926;28;20306;-54
2024/02/16 05:32:08;;;;;;;3.10;3.00;;;;;;;;;;6357178;28;20291;-56
2024/02/16 05:35:12;;;;;;;2.70;2.70;;;;;;;;;;6356879;28;20291;-55
2024/02/16 05:38:31;;;;;;;3.13;2.97;;;;;;;;;;6357249;28;20319;-55
2024/02/16 05:41:38;;;;;;;2.77;2.67;;;;;;;;;;6357469;28;20627;-57
2024/02/16 05:44:43;;;;;;;2.83;2.63;;;;;;;;;;6356585;28;20505;-57
2024/02/16 05:47:47;;;;;;;2.80;2.80;;;;;;;;;;6356847;28;20286;-56
2024/02/16 05:50:51;;;;;;;2.60;2.60;;;;;;;;;;6357403;28;20599;-55
2024/02/16 05:53:55;;;;;;;2.50;2.50;;;;;;;;;;6338220;28;20412;-56
2024/02/16 05:56:59;;;;;;;2.50;2.50;;;;;;;;;;6359002;28;20310;-54
2024/02/16 06:00:06;;;;;;;2.80;2.70;;;;;;;;;;6361721;28;20484;-59
2024/02/16 06:03:10;;;;;;;2.30;2.30;;;;;;;;;;6361443;28;20301;-57
2024/02/16 06:06:14;;;;;;;2.40;2.40;;;;;;;;;;6361905;28;20371;-55
2024/02/16 06:09:18;;;;;;;2.37;2.20;;;;;;;;;;6360847;28;20449;-57
2024/02/16 06:12:25;;;;;;;2.33;2.33;;;;;;;;;;6334545;28;20367;-58
2024/02/16 06:15:30;;;;;;;2.50;2.40;;;;;;;;;;6336512;28;20295;-56
2024/02/16 06:18:34;;;;;;;2.03;2.03;;;;;;;;;;6335589;28;20296;-57
2024/02/16 06:21:38;;;;;;;2.00;2.00;;;;;;;;;;6335960;28;20483;-54
2024/02/16 06:24:42;;;;;;;2.00;2.00;;;;;;;;;;6335533;28;20583;-55
2024/02/16 06:27:46;;;;;;;2.30;2.30;;;;;;;;;;6334985;28;20468;-54
2024/02/16 06:30:51;;;;;;;2.00;2.00;;;;;;;;;;6336009;28;20292;-55
2024/02/16 06:33:55;;;;;;;2.10;2.10;;;;;;;;;;6335152;28;20296;-55
2024/02/16 06:36:59;;;;;;;1.50;1.40;;;;;;;;;;6336147;28;20287;-56
2024/02/16 06:40:04;;;;;;;1.80;1.80;;;;;;;;;;6335244;28;20463;-56
2024/02/16 06:43:09;;;;;;;1.70;1.70;;;;;;;;;;6334605;28;20287;-56
2024/02/16 06:46:14;;;;;;;1.80;1.80;;;;;;;;;;6335293;28;20304;-56
2024/02/16 06:49:18;;;;;;;1.47;1.47;;;;;;;;;;6334811;28;20292;-56
2024/02/16 06:52:22;;;;;;;1.90;1.90;;;;;;;;;;6335101;28;20399;-57
2024/02/16 06:55:26;;;;;;;1.57;1.57;;;;;;;;;;6335347;28;20304;-56
2024/02/16 06:58:30;;;;;;;1.57;1.57;;;;;;;;;;6334300;28;20295;-57
2024/02/16 07:01:37;;;;;;;2.10;1.60;;;;;;;;;;6335419;28;20290;-56
2024/02/16 07:04:41;;;;;;;1.50;1.50;;;;;;;;;;6333890;28;20310;-55
2024/02/16 07:07:45;;;;;;;1.50;1.50;;;;;;;;;;6333481;28;20292;-54
2024/02/16 07:10:51;;;;;;;1.60;1.60;;;;;;;;;;6346416;28;20603;-57
2024/02/16 07:13:55;;;;;;;1.50;1.40;;;;;;;;;;6359418;28;20453;-55
2024/02/16 07:17:00;;;;;;;1.57;1.50;;;;;;;;;;6359932;28;20287;-55
2024/02/16 07:20:05;;;;;;;1.50;1.50;;;;;;;;;;6359573;28;20291;-55
2024/02/16 07:23:10;;;;;;;1.50;1.50;;;;;;;;;;6359107;28;20287;-54
2024/02/16 07:26:14;;;;;;;1.80;1.70;;;;;;;;;;6359777;28;20291;-54
2024/02/16 07:29:18;;;;;;;1.70;1.70;;;;;;;;;;6359336;28;20292;-57
2024/02/16 07:32:23;;;;;;;1.57;1.57;;;;;;;;;;6359696;28;20296;-56
2024/02/16 07:35:27;;;;;;;1.80;1.70;;;;;;;;;;6359239;28;20591;-56
2024/02/16 07:38:31;;;;;;;1.70;1.70;;;;;;;;;;6359150;28;20292;-56
2024/02/16 07:41:35;;;;;;;1.50;1.50;;;;;;;;;;6359649;28;20548;-56
2024/02/16 07:44:38;;;;;;;1.47;1.47;;;;;;;;;;6358992;28;20295;-56
2024/02/16 07:47:44;;;;;;;1.50;1.50;;;;;;;;;;6357920;28;20311;-56
2024/02/16 07:50:50;;;;;;;1.73;1.67;;;;;;;;;;6359035;28;20288;-56
2024/02/16 07:53:54;;;;;;;1.60;1.60;;;;;;;;;;6358423;28;20596;-57
2024/02/16 07:56:59;;;;;;;2.30;1.60;;;;;;;;;;6358646;28;20299;-56
2024/02/16 08:00:06;;;;;;;2.00;1.90;;;;;;;;;;6358252;28;20292;-55
2024/02/16 08:03:12;;;;;;;1.67;1.60;;;;;;;;;;6358359;28;20313;-57
2024/02/16 08:06:16;;;;;;;1.60;1.60;;;;;;;;;;6359178;28;20299;-55
2024/02/16 08:09:20;;;;;;;1.80;1.70;;;;;;;;;;6358287;28;20478;-57
2024/02/16 08:12:25;;;;;;;1.83;1.73;;;;;;;;;;6358124;28;20347;-57
2024/02/16 08:15:29;;;;;;;1.70;1.60;;;;;;;;;;6340197;28;20300;-56
2024/02/16 08:18:34;;;;;;;1.57;1.57;;;;;;;;;;6357571;28;20292;-55
2024/02/16 08:21:38;;;;;;;1.50;1.50;;;;;;;;;;6358239;28;20288;-56
2024/02/16 08:24:46;;;;;;;1.47;1.47;;;;;;;;;;6357742;28;20337;-56
2024/02/16 08:27:50;;;;;;;2.37;2.27;;;;;;;;;;6357883;28;20296;-57
2024/02/16 08:30:54;;;;;;;2.17;2.00;;;;;;;;;;6358501;28;20559;-56
2024/02/16 08:33:59;;;;;;;1.20;1.20;;;;;;;;;;6358090;28;20288;-57
2024/02/16 08:37:06;;;;;;;1.50;1.40;;;;;;;;;;6358310;28;20608;-56
2024/02/16 08:40:14;;;;;;;2.17;1.57;;;;;;;;;;6357577;28;20289;-57
2024/02/16 08:43:18;;;;;;;1.50;1.40;;;;;;;;;;6339398;28;20293;-56
2024/02/16 08:46:22;;;;;;;1.17;1.17;;;;;;;;;;6358633;28;20471;-58
2024/02/16 08:49:28;;;;;;;1.43;1.00;;;;;;;;;;6357372;28;20288;-57
2024/02/16 08:52:32;;;;;;;1.20;1.20;;;;;;;;;;6357119;28;20297;-56
2024/02/16 08:55:36;;;;;;;1.20;1.20;;;;;;;;;;6357793;28;20308;-57
2024/02/16 08:58:40;;;;;;;1.60;0.93;;;;;;;;;;6357275;28;20292;-57
2024/02/16 09:01:44;;;;;;;1.10;1.10;;;;;;;;;;6358027;28;20318;-57
2024/02/16 09:04:49;;;;;;;1.40;1.40;;;;;;;;;;6356985;28;20287;-60
2024/02/16 09:07:53;;;;;;;1.20;1.20;;;;;;;;;;6356815;28;20349;-57
2024/02/16 09:10:57;;;;;;;1.10;1.10;;;;;;;;;;6357703;28;20632;-57
2024/02/16 09:14:00;;;;;;;2.50;1.33;;;;;;;;;;6357435;28;20476;-56
2024/02/16 09:17:05;;;;;;;1.27;1.27;;;;;;;;;;6357806;28;20312;-56
2024/02/16 09:20:12;;;;;;;3.20;1.37;;;;;;;;;;6356959;28;20289;-57
2024/02/16 09:23:16;;;;;;;1.63;1.40;;;;;;;;;;6357147;28;20479;-58
2024/02/16 09:26:20;;;;;;;1.20;1.20;;;;;;;;;;6357694;28;20293;-57
2024/02/16 09:29:24;;;;;;;1.23;1.20;;;;;;;;;;6357006;28;20377;-58
2024/02/16 09:32:27;;;;;;;1.30;1.30;;;;;;;;;;6361834;28;20308;-58
2024/02/16 09:35:33;;;;;;;1.30;1.30;;;;;;;;;;6362844;28;20316;-57
2024/02/16 09:38:37;;;;;;;1.10;1.10;;;;;;;;;;6361900;28;20289;-57
2024/02/16 09:41:44;;;;;;;1.63;1.40;;;;;;;;;;6362617;28;20391;-57
2024/02/16 09:44:48;;;;;;;1.40;1.40;;;;;;;;;;6362024;28;20292;-56
2024/02/16 09:47:53;;;;;;;1.40;1.40;;;;;;;;;;6362437;28;20429;-57
2024/02/16 09:51:08;;;;;;;3.97;1.93;;;;;;;;;;6362769;28;20292;-57
2024/02/16 09:54:12;;;;;;;1.30;1.30;;;;;;;;;;6362112;28;20296;-56
2024/02/16 09:57:18;;;;;;;1.20;1.20;;;;;;;;;;6362006;28;20296;-56
2024/02/16 10:00:23;;;;;;;1.70;1.40;;;;;;;;;;6362131;28;20560;-58
2024/02/16 10:03:28;;;;;;;2.10;1.50;;;;;;;;;;6361670;28;20565;-57
2024/02/16 10:06:33;;;;;;;1.40;1.40;;;;;;;;;;6362483;28;20546;-57
2024/02/16 10:09:38;;;;;;;1.40;1.40;;;;;;;;;;6361375;28;20289;-57
2024/02/16 10:12:42;;;;;;;1.50;1.50;;;;;;;;;;6361617;28;20297;-57
2024/02/16 10:15:46;;;;;;;1.23;1.23;;;;;;;;;;6362064;28;20289;-57
2024/02/16 10:18:51;;;;;;;1.40;1.40;;;;;;;;;;6361555;28;20293;-56
2024/02/16 10:22:07;;;;;;;1.53;1.43;;;;;;;;;;6362072;28;20284;-57
2024/02/16 10:25:13;;;;;;;1.50;1.50;;;;;;;;;;6354183;28;20301;-56
2024/02/16 10:28:19;;;;;;;2.13;1.60;;;;;;;;;;6361138;28;20297;-55
2024/02/16 10:31:28;;;;;;;1.73;1.63;;;;;;;;;;6361638;28;20300;-56
2024/02/16 10:34:33;;;;;;;1.60;1.60;;;;;;;;;;6360459;28;20297;-56
2024/02/16 10:37:40;;;;;;;1.40;1.40;;;;;;;;;;6361142;28;20297;-55
2024/02/16 10:40:44;;;;;;;1.30;1.30;;;;;;;;;;6361571;28;20292;-57
2024/02/16 10:43:50;;;;;;;1.30;1.30;;;;;;;;;;6359845;28;20305;-57
2024/02/16 10:46:56;;;;;;;1.30;1.30;;;;;;;;;;6361613;28;20449;-56
2024/02/16 10:50:00;;;;;;;1.42;1.33;;;;;;;;;;6360719;28;20545;-56
2024/02/16 10:53:09;;;;;;;1.17;1.17;;;;;;;;;;6357648;28;20288;-57
2024/02/16 10:56:14;;;;;;;1.40;1.40;;;;;;;;;;6360015;28;20292;-58
2024/02/16 10:59:18;;;;;;;1.70;1.60;;;;;;;;;;6360461;28;20301;-56
2024/02/16 11:02:22;;;;;;;1.27;1.27;;;;;;;;;;6360190;28;20288;-58
2024/02/16 11:05:36;;;;;;;1.60;1.30;;;;;;;;;;6360695;28;20313;-56
2024/02/16 11:08:41;;;;;;;1.40;1.40;;;;;;;;;;6360389;28;20297;-57
2024/02/16 11:11:53;;;;;;;1.40;1.30;;;;;;;;;;6360751;28;20293;-57
2024/02/16 11:14:57;;;;;;;1.30;1.30;;;;;;;;;;6360157;28;20289;-57
2024/02/16 11:18:02;;;;;;;4.35;1.20;;;;;;;;;;6360045;28;20292;-57
2024/02/16 11:21:07;;;;;;;1.30;1.20;;;;;;;;;;6360420;28;20290;-58
2024/02/16 11:24:15;;;;;;;1.77;1.50;;;;;;;;;;6359662;28;20285;-57
2024/02/16 11:27:21;;;;;;;1.52;1.52;;;;;;;;;;6359544;28;20293;-59
2024/02/16 11:30:25;;;;;;;1.77;1.77;;;;;;;;;;6359980;28;20298;-58
2024/02/16 11:33:30;;;;;;;4.22;1.70;;;;;;;;;;6358962;28;20297;-58
2024/02/16 11:36:35;;;;;;;2.72;1.50;;;;;;;;;;6360282;28;20288;-57
2024/02/16 11:39:44;;;;;;;1.88;1.70;;;;;;;;;;6340932;28;20466;-57
2024/02/16 11:42:48;;;;;;;1.52;1.52;;;;;;;;;;6359012;28;20309;-57
2024/02/16 11:45:52;;;;;;;1.75;1.65;;;;;;;;;;6359753;28;20482;-58
2024/02/16 11:49:06;;;;;;;2.33;1.90;;;;;;;;;;6359509;28;20292;-58
2024/02/16 11:52:10;;;;;;;1.60;1.60;;;;;;;;;;6359873;28;20289;-57
2024/02/16 11:55:16;;;;;;;1.70;1.70;;;;;;;;;;6358724;28;20300;-57
2024/02/16 11:58:22;;;;;;;2.70;1.48;;;;;;;;;;6358717;28;20380;-58
2024/02/16 12:01:25;;;;;;;1.65;1.65;;;;;;;;;;6359719;28;20466;-58
2024/02/16 12:04:31;;;;;;;2.28;1.70;;;;;;;;;;6358586;28;20288;-58
2024/02/16 12:07:40;;;;;;;3.05;1.60;;;;;;;;;;6358777;28;20260;-58
2024/02/16 12:10:47;;;;;;;2.63;1.90;;;;;;;;;;6359252;28;20290;-57
2024/02/16 12:13:51;;;;;;;1.65;1.60;;;;;;;;;;6358526;28;20292;-56
2024/02/16 12:16:57;;;;;;;1.60;1.50;;;;;;;;;;6359025;28;20292;-58
2024/02/16 12:20:02;;;;;;;2.10;2.00;;;;;;;;;;6358431;28;20289;-57
2024/02/16 12:23:13;;;;;;;1.40;1.40;;;;;;;;;;6358407;28;20305;-56
2024/02/16 12:26:18;;;;;;;1.40;1.40;;;;;;;;;;6358802;28;20289;-57
2024/02/16 12:29:22;;;;;;;1.40;1.30;;;;;;;;;;6357939;28;20288;-57
2024/02/16 12:32:26;;;;;;;1.75;1.42;;;;;;;;;;6358155;28;20289;-57
2024/02/16 12:35:30;;;;;;;1.10;1.10;;;;;;;;;;6358677;28;20308;-55
2024/02/16 12:38:34;;;;;;;1.10;1.10;;;;;;;;;;6349870;28;20289;-56
2024/02/16 12:41:41;;;;;;;1.10;1.10;;;;;;;;;;6333427;28;20495;-56
2024/02/16 12:44:45;;;;;;;1.20;1.20;;;;;;;;;;6332920;28;20294;-56
2024/02/16 12:47:50;;;;;;;1.02;1.02;;;;;;;;;;6332895;28;20297;-57
2024/02/16 12:50:54;;;;;;;1.40;1.15;;;;;;;;;;6333363;28;20545;-56
2024/02/16 12:53:57;;;;;;;1.17;1.17;;;;;;;;;;6332792;28;20281;-56
2024/02/16 12:57:03;;;;;;;1.75;1.27;;;;;;;;;;6333302;28;20289;-58
2024/02/16 13:00:08;;;;;;;1.10;1.10;;;;;;;;;;6332834;28;20301;-57
2024/02/16 13:03:12;;;;;;;1.05;0.98;;;;;;;;;;6332534;28;20313;-58
2024/02/16 13:06:16;;;;;;;1.35;0.98;;;;;;;;;;6332585;28;20293;-57
2024/02/16 13:09:20;;;;;;;1.20;1.20;;;;;;;;;;6346801;28;20470;-57
2024/02/16 13:12:25;;;;;;;1.00;1.00;;;;;;;;;;6332217;28;20285;-58
2024/02/16 13:15:29;;;;;;;1.27;1.20;;;;;;;;;;6332723;28;20301;-57
2024/02/16 13:18:33;;;;;;;0.90;0.90;;;;;;;;;;6332445;28;20297;-57
2024/02/16 13:21:37;;;;;;;1.00;1.00;;;;;;;;;;6332955;28;20305;-57
2024/02/16 13:24:41;;;;;;;1.02;1.02;;;;;;;;;;6332069;28;20288;-57
2024/02/16 13:27:47;;;;;;;1.08;1.08;;;;;;;;;;6332126;28;20281;-58
2024/02/16 13:30:51;;;;;;;1.30;1.25;;;;;;;;;;6332467;28;20286;-58
2024/02/16 13:33:55;;;;;;;1.10;1.10;;;;;;;;;;6332249;28;20286;-56
2024/02/16 13:36:59;;;;;;;1.13;1.10;;;;;;;;;;6332781;28;20280;-58
2024/02/16 13:40:07;;;;;;;2.20;1.13;;;;;;;;;;6332178;28;20293;-57
2024/02/16 13:43:12;;;;;;;1.10;1.10;;;;;;;;;;6331946;28;20289;-56
2024/02/16 13:46:17;;;;;;;2.83;0.90;;;;;;;;;;6332548;28;20289;-56
2024/02/16 13:49:21;;;;;;;1.15;1.00;;;;;;;;;;6332063;28;20531;-56
2024/02/16 13:52:26;;;;;;;4.93;1.10;;;;;;;;;;6331750;28;20290;-55
2024/02/16 13:55:29;;;;;;;2.85;1.20;;;;;;;;;;6331878;28;20299;-56
2024/02/16 13:58:36;;;;;;;1.90;1.23;;;;;;;;;;6331864;28;20614;-55
2024/02/16 14:01:40;;;;;;;1.10;1.10;;;;;;;;;;6332314;28;20484;-56
2024/02/16 14:04:45;;;;;;;1.42;1.30;;;;;;;;;;6331502;28;20289;-55
2024/02/16 14:07:49;;;;;;;1.10;1.10;;;;;;;;;;6331714;28;20282;-56
2024/02/16 14:11:03;;;;;;;3.03;1.38;;;;;;;;;;6361262;28;20293;-56
2024/02/16 14:14:09;;;;;;;1.15;1.15;;;;;;;;;;6356949;28;20289;-56
2024/02/16 14:17:21;;;;;;;1.00;1.00;;;;;;;;;;6357541;28;20581;-56
2024/02/16 14:20:25;;;;;;;1.30;1.30;;;;;;;;;;6361475;28;20450;-56
2024/02/16 14:23:30;;;;;;;1.50;1.50;;;;;;;;;;6361454;28;20292;-57
2024/02/16 14:26:34;;;;;;;1.00;1.00;;;;;;;;;;6361800;28;20305;-56
2024/02/16 14:29:39;;;;;;;1.88;1.20;;;;;;;;;;6361240;28;20289;-58
2024/02/16 14:32:43;;;;;;;1.02;1.02;;;;;;;;;;6361047;28;20296;-58
2024/02/16 14:35:48;;;;;;;1.17;1.17;;;;;;;;;;6361413;28;20293;-58
2024/02/16 14:38:52;;;;;;;1.45;1.40;;;;;;;;;;6360609;28;20293;-57
2024/02/16 14:41:58;;;;;;;1.42;1.20;;;;;;;;;;6361068;28;20293;-57
2024/02/16 14:45:03;;;;;;;1.40;1.40;;;;;;;;;;6360883;28;20289;-58
2024/02/16 14:48:08;;;;;;;1.15;1.05;;;;;;;;;;6360617;28;20325;-57
2024/02/16 14:51:12;;;;;;;1.92;1.20;;;;;;;;;;6360875;28;20373;-58
2024/02/16 14:54:16;;;;;;;1.17;1.17;;;;;;;;;;6360009;28;20296;-57
2024/02/16 14:57:22;;;;;;;1.00;1.00;;;;;;;;;;6359777;28;20585;-59
2024/02/16 15:00:28;;;;;;;1.20;1.20;;;;;;;;;;6360779;28;20581;-57
2024/02/16 15:03:32;;;;;;;1.10;1.10;;;;;;;;;;6360238;28;20285;-57
2024/02/16 15:06:36;;;;;;;1.10;1.10;;;;;;;;;;6360910;28;20573;-57
2024/02/16 15:09:40;;;;;;;1.30;1.30;;;;;;;;;;6367847;27;20300;-57
2024/02/16 15:12:45;;;;;;;1.20;1.20;;;;;;;;;;6360119;28;20289;-56
2024/02/16 15:15:50;;;;;;;1.50;1.33;;;;;;;;;;6360332;28;20289;-57
2024/02/16 15:18:54;;;;;;;1.33;1.33;;;;;;;;;;6359914;28;20305;-56
2024/02/16 15:21:58;;;;;;;1.50;1.40;;;;;;;;;;6360043;28;20300;-57
2024/02/16 15:25:02;;;;;;;1.50;1.40;;;;;;;;;;6359645;28;20297;-57
2024/02/16 15:28:07;;;;;;;1.40;1.40;;;;;;;;;;6359340;28;20293;-59
2024/02/16 15:31:12;;;;;;;1.70;1.70;;;;;;;;;;6360172;28;20309;-57
2024/02/16 15:34:16;;;;;;;1.80;1.70;;;;;;;;;;6359562;28;20593;-57
2024/02/16 15:37:20;;;;;;;1.60;1.50;;;;;;;;;;6359482;28;20292;-58
2024/02/16 15:40:25;;;;;;;1.55;1.52;;;;;;;;;;6359795;28;20581;-57
2024/02/16 15:43:28;;;;;;;1.70;1.67;;;;;;;;;;6358569;28;20280;-60
2024/02/16 15:46:34;;;;;;;1.60;1.60;;;;;;;;;;6359810;28;20542;-59
2024/02/16 15:49:38;;;;;;;1.83;1.83;;;;;;;;;;6358362;28;20347;-58
2024/02/16 15:52:42;;;;;;;1.90;1.77;;;;;;;;;;6358917;28;20297;-57
2024/02/16 15:55:46;;;;;;;2.00;1.90;;;;;;;;;;6358900;28;20312;-58
2024/02/16 15:58:51;;;;;;;2.13;2.03;;;;;;;;;;6358931;28;20289;-58
2024/02/16 16:01:56;;;;;;;2.47;1.85;;;;;;;;;;6359313;28;20298;-58
2024/02/16 16:05:03;;;;;;;1.73;1.73;;;;;;;;;;6358807;28;20285;-58
2024/02/16 16:08:07;;;;;;;2.00;2.00;;;;;;;;;;6359032;28;20562;-58
2024/02/16 16:11:11;;;;;;;2.17;2.17;;;;;;;;;;6363836;27;20290;-57
2024/02/16 16:14:15;;;;;;;2.90;2.70;;;;;;;;;;6358666;28;20312;-58
2024/02/16 16:17:20;;;;;;;3.10;2.97;;;;;;;;;;6358973;28;20469;-58
2024/02/16 16:20:24;;;;;;;3.20;3.10;;;;;;;;;;6358371;28;20297;-58
2024/02/16 16:23:28;;;;;;;4.40;4.00;;;;;;;;;;6358277;28;20464;-58
2024/02/16 16:26:32;;;;;;;4.68;4.32;;;;;;;;;;6358932;28;20292;-58
2024/02/16 16:29:37;;;;;;;6.95;5.78;;;;;;;;;;6358415;28;20312;-57
2024/02/16 16:32:42;;;;;;;9.15;6.35;;;;;;;;;;6357941;28;20289;-56
2024/02/16 16:35:46;;;;;;;9.13;6.30;;;;;;;;;;6358426;28;20586;-57
2024/02/16 16:38:50;;;;;;;13.60;8.35;;;;;;;;;;6357787;28;20284;-56
2024/02/16 16:41:54;;;;;;;13.45;9.02;;;;;;;;;;6339238;28;20526;-56
2024/02/16 16:44:58;;;;;;;18.25;10.63;;;;;;;;;;6357746;28;20414;-56
2024/02/16 16:48:04;;;;;;;19.73;11.68;;;;;;;;;;6357874;28;20292;-59
2024/02/16 16:51:08;;;;;;;30.50;14.52;;;;;;;;;;6358289;28;20289;-55
2024/02/16 16:54:12;;;;;;;27.20;14.77;;;;;;;;;;6357310;28;20605;-58
2024/02/16 16:57:18;;;;;;;23.15;13.68;;;;;;;;;;6358159;28;20475;-58
2024/02/16 17:00:23;;;;;;;25.55;13.52;;;;;;;;;;6357476;28;20298;-56
2024/02/16 17:03:29;;;;;;;33.72;14.55;;;;;;;;;;6357413;28;20324;-54
2024/02/16 17:06:33;;;;;;;24.00;13.48;;;;;;;;;;6358037;28;20555;-57
2024/02/16 17:09:37;;;;;;;27.25;14.13;;;;;;;;;;6357354;28;20405;-57
2024/02/16 17:12:43;;;;;;;31.90;15.05;;;;;;;;;;6357390;28;20293;-58
2024/02/16 17:15:49;;;;;;;29.92;14.95;;;;;;;;;;6358044;28;20481;-58
2024/02/16 17:18:54;;;;;;;28.88;14.82;;;;;;;;;;6357513;28;20333;-56
2024/02/16 17:21:58;;;;;;;27.23;13.63;;;;;;;;;;6357785;28;20292;-57
2024/02/16 17:25:03;;;;;;;27.85;13.73;;;;;;;;;;6357584;28;20297;-56
2024/02/16 17:28:07;;;;;;;23.50;12.40;;;;;;;;;;6357237;28;20467;-57
2024/02/16 17:31:11;;;;;;;23.55;12.38;;;;;;;;;;6358211;28;20309;-56
2024/02/16 17:34:17;;;;;;;20.23;11.10;;;;;;;;;;6357063;28;20281;-56
2024/02/16 17:37:21;;;;;;;23.08;10.93;;;;;;;;;;6357582;28;20280;-57
2024/02/16 17:40:25;;;;;;;18.38;10.40;;;;;;;;;;6357351;28;20308;-56
2024/02/16 17:43:29;;;;;;;17.00;10.77;;;;;;;;;;6356698;28;20297;-59
2024/02/16 17:46:33;;;;;;;15.38;10.10;;;;;;;;;;6357552;28;20313;-58
2024/02/16 17:49:38;;;;;;;18.63;9.85;;;;;;;;;;6356962;28;20313;-58
2024/02/16 17:52:42;;;;;;;13.55;8.38;;;;;;;;;;6359948;28;20561;-57
2024/02/16 17:55:46;;;;;;;10.57;7.75;;;;;;;;;;6362280;28;20297;-58
2024/02/16 17:58:50;;;;;;;10.95;8.15;;;;;;;;;;6361895;28;20308;-57
2024/02/16 18:01:54;;;;;;;10.52;7.78;;;;;;;;;;6362028;28;20285;-58
2024/02/16 18:05:00;;;;;;;10.68;7.45;;;;;;;;;;6361653;28;20288;-56
2024/02/16 18:08:04;;;;;;;10.50;7.40;;;;;;;;;;6361631;28;20300;-56
2024/02/16 18:11:08;;;;;;;10.57;7.20;;;;;;;;;;6361900;28;20478;-57
2024/02/16 18:14:12;;;;;;;11.23;7.30;;;;;;;;;;6361230;28;20442;-57
2024/02/16 18:17:16;;;;;;;11.32;7.50;;;;;;;;;;6361743;28;20293;-56
2024/02/16 18:20:22;;;;;;;8.98;6.97;;;;;;;;;;6361073;28;20289;-56
2024/02/16 18:23:27;;;;;;;8.57;6.97;;;;;;;;;;6360953;28;20301;-56